sensor_id;sensor_type;location;lat;lon;timestamp;temperature;humidity
14755;DHT22;7469;50.906;6.952;2022-08-19T00:00:03;20.10;99.90
14755;DHT22;7469;50.906;6.952;2022-08-19T00:02:31;20.10;99.90
14755;DHT22;7469;50.906;6.952;2022-08-19T00:04:59;20.10;99.90
14755;DHT22;7469;50.906;6.952;2022-08-19T00:07:27;20.10;99.90
14755;DHT22;7469;50.906;6.952;2022-08-19T00:09:55;20.00;99.90
14755;DHT22;7469;50.906;6.952;2022-08-19T00:12:23;20.00;99.90
14755;DHT22;7469;50.906;6.952;2022-08-19T00:14:53;20.00;99.90
14755;DHT22;7469;50.906;6.952;2022-08-19T00:17:21;20.00;99.90
14755;DHT22;7469;50.906;6.952;2022-08-19T00:19:49;20.00;99.90
14755;DHT22;7469;50.906;6.952;2022-08-19T00:22:17;20.00;99.90
14755;DHT22;7469;50.906;6.952;2022-08-19T00:24:45;19.90;99.90
14755;DHT22;7469;50.906;6.952;2022-08-19T00:27:16;19.90;99.90
14755;DHT22;7469;50.906;6.952;2022-08-19T00:29:53;19.90;99.90
14755;DHT22;7469;50.906;6.952;2022-08-19T00:32:22;19.90;99.90
14755;DHT22;7469;50.906;6.952;2022-08-19T00:34:50;19.90;99.90
14755;DHT22;7469;50.906;6.952;2022-08-19T00:37:20;19.90;99.90
14755;DHT22;7469;50.906;6.952;2022-08-19T00:39:49;19.80;99.90
14755;DHT22;7469;50.906;6.952;2022-08-19T00:42:20;19.80;99.90
14755;DHT22;7469;50.906;6.952;2022-08-19T00:44:48;19.80;99.90
14755;DHT22;7469;50.906;6.952;2022-08-19T00:47:18;19.80;99.90
14755;DHT22;7469;50.906;6.952;2022-08-19T00:49:49;19.80;99.90
14755;DHT22;7469;50.906;6.952;2022-08-19T00:52:21;19.70;99.90
14755;DHT22;7469;50.906;6.952;2022-08-19T00:54:52;19.70;99.90
14755;DHT22;7469;50.906;6.952;2022-08-19T00:57:26;19.70;99.90
14755;DHT22;7469;50.906;6.952;2022-08-19T00:59:56;19.70;99.90
14755;DHT22;7469;50.906;6.952;2022-08-19T01:02:30;19.60;99.90
14755;DHT22;7469;50.906;6.952;2022-08-19T01:05:01;19.60;99.90
14755;DHT22;7469;50.906;6.952;2022-08-19T01:07:32;19.60;99.90
14755;DHT22;7469;50.906;6.952;2022-08-19T01:10:06;19.50;99.90
14755;DHT22;7469;50.906;6.952;2022-08-19T01:12:35;19.50;99.90
14755;DHT22;7469;50.906;6.952;2022-08-19T01:15:04;19.50;99.90
14755;DHT22;7469;50.906;6.952;2022-08-19T01:17:36;19.50;99.90
14755;DHT22;7469;50.906;6.952;2022-08-19T01:20:07;19.40;99.90
14755;DHT22;7469;50.906;6.952;2022-08-19T01:22:43;19.40;99.90
14755;DHT22;7469;50.906;6.952;2022-08-19T01:25:12;19.40;99.90
14755;DHT22;7469;50.906;6.952;2022-08-19T01:27:43;19.40;99.90
14755;DHT22;7469;50.906;6.952;2022-08-19T01:30:14;19.30;99.90
14755;DHT22;7469;50.906;6.952;2022-08-19T01:32:42;19.30;99.90
14755;DHT22;7469;50.906;6.952;2022-08-19T01:35:12;19.30;99.90
14755;DHT22;7469;50.906;6.952;2022-08-19T01:37:48;19.30;99.90
14755;DHT22;7469;50.906;6.952;2022-08-19T01:40:18;19.30;99.90
14755;DHT22;7469;50.906;6.952;2022-08-19T01:42:46;19.30;99.90
14755;DHT22;7469;50.906;6.952;2022-08-19T01:45:16;19.20;99.90
14755;DHT22;7469;50.906;6.952;2022-08-19T01:47:44;19.20;99.90
14755;DHT22;7469;50.906;6.952;2022-08-19T01:50:28;19.20;99.90
14755;DHT22;7469;50.906;6.952;2022-08-19T01:52:58;19.20;99.90
14755;DHT22;7469;50.906;6.952;2022-08-19T01:55:34;19.20;99.90
14755;DHT22;7469;50.906;6.952;2022-08-19T01:58:10;19.20;99.90
14755;DHT22;7469;50.906;6.952;2022-08-19T02:00:39;19.20;99.90
14755;DHT22;7469;50.906;6.952;2022-08-19T02:03:07;19.20;99.90
14755;DHT22;7469;50.906;6.952;2022-08-19T02:05:35;19.10;99.90
14755;DHT22;7469;50.906;6.952;2022-08-19T02:08:05;19.10;99.90
14755;DHT22;7469;50.906;6.952;2022-08-19T02:10:33;19.10;99.90
14755;DHT22;7469;50.906;6.952;2022-08-19T02:13:05;19.10;99.90
14755;DHT22;7469;50.906;6.952;2022-08-19T02:15:33;19.10;99.90
14755;DHT22;7469;50.906;6.952;2022-08-19T02:18:00;19.00;99.90
14755;DHT22;7469;50.906;6.952;2022-08-19T02:20:28;19.00;99.90
14755;DHT22;7469;50.906;6.952;2022-08-19T02:22:56;19.00;99.90
14755;DHT22;7469;50.906;6.952;2022-08-19T02:25:26;19.00;99.90
14755;DHT22;7469;50.906;6.952;2022-08-19T02:27:54;19.00;99.90
14755;DHT22;7469;50.906;6.952;2022-08-19T02:30:22;18.90;99.90
14755;DHT22;7469;50.906;6.952;2022-08-19T02:32:51;19.00;99.90
14755;DHT22;7469;50.906;6.952;2022-08-19T02:35:19;18.90;99.90
14755;DHT22;7469;50.906;6.952;2022-08-19T02:37:48;18.90;99.90
14755;DHT22;7469;50.906;6.952;2022-08-19T02:40:35;18.90;99.90
14755;DHT22;7469;50.906;6.952;2022-08-19T02:43:05;18.90;99.90
14755;DHT22;7469;50.906;6.952;2022-08-19T02:45:34;18.90;99.90
14755;DHT22;7469;50.906;6.952;2022-08-19T02:48:07;18.90;99.90
14755;DHT22;7469;50.906;6.952;2022-08-19T02:50:48;18.90;99.90
14755;DHT22;7469;50.906;6.952;2022-08-19T02:53:19;18.80;99.90
14755;DHT22;7469;50.906;6.952;2022-08-19T02:55:50;18.80;99.90
14755;DHT22;7469;50.906;6.952;2022-08-19T02:58:20;18.80;99.90
14755;DHT22;7469;50.906;6.952;2022-08-19T03:00:54;18.80;99.90
14755;DHT22;7469;50.906;6.952;2022-08-19T03:03:23;18.80;99.90
14755;DHT22;7469;50.906;6.952;2022-08-19T03:05:51;18.80;99.90
14755;DHT22;7469;50.906;6.952;2022-08-19T03:08:23;18.70;99.90
14755;DHT22;7469;50.906;6.952;2022-08-19T03:10:53;18.70;99.90
14755;DHT22;7469;50.906;6.952;2022-08-19T03:13:21;18.70;99.90
14755;DHT22;7469;50.906;6.952;2022-08-19T03:15:49;18.70;99.90
14755;DHT22;7469;50.906;6.952;2022-08-19T03:18:17;18.70;99.90
14755;DHT22;7469;50.906;6.952;2022-08-19T03:20:51;18.60;99.90
14755;DHT22;7469;50.906;6.952;2022-08-19T03:23:21;18.60;99.90
14755;DHT22;7469;50.906;6.952;2022-08-19T03:25:54;18.60;99.90
14755;DHT22;7469;50.906;6.952;2022-08-19T03:28:42;18.60;99.90
14755;DHT22;7469;50.906;6.952;2022-08-19T03:31:18;18.60;99.90
14755;DHT22;7469;50.906;6.952;2022-08-19T03:34:06;18.50;99.90
14755;DHT22;7469;50.906;6.952;2022-08-19T03:36:35;18.50;99.90
14755;DHT22;7469;50.906;6.952;2022-08-19T03:39:04;18.50;99.90
14755;DHT22;7469;50.906;6.952;2022-08-19T03:41:39;18.60;99.90
14755;DHT22;7469;50.906;6.952;2022-08-19T03:44:11;18.50;99.90
14755;DHT22;7469;50.906;6.952;2022-08-19T03:46:44;18.50;99.90
14755;DHT22;7469;50.906;6.952;2022-08-19T03:49:12;18.50;99.90
14755;DHT22;7469;50.906;6.952;2022-08-19T03:51:41;18.50;99.90
14755;DHT22;7469;50.906;6.952;2022-08-19T03:54:12;18.50;99.90
14755;DHT22;7469;50.906;6.952;2022-08-19T03:56:43;18.50;99.90
14755;DHT22;7469;50.906;6.952;2022-08-19T03:59:14;18.50;99.90
14755;DHT22;7469;50.906;6.952;2022-08-19T04:01:43;18.50;99.90
14755;DHT22;7469;50.906;6.952;2022-08-19T04:04:11;18.50;99.90
14755;DHT22;7469;50.906;6.952;2022-08-19T04:06:40;18.50;99.90
14755;DHT22;7469;50.906;6.952;2022-08-19T04:09:10;18.50;99.90
14755;DHT22;7469;50.906;6.952;2022-08-19T04:11:42;18.50;99.90
14755;DHT22;7469;50.906;6.952;2022-08-19T04:14:12;18.50;99.90
14755;DHT22;7469;50.906;6.952;2022-08-19T04:16:41;18.40;99.90
14755;DHT22;7469;50.906;6.952;2022-08-19T04:19:12;18.40;99.90
14755;DHT22;7469;50.906;6.952;2022-08-19T04:21:43;18.40;99.90
14755;DHT22;7469;50.906;6.952;2022-08-19T04:24:13;18.40;99.90
14755;DHT22;7469;50.906;6.952;2022-08-19T04:26:43;18.40;99.90
14755;DHT22;7469;50.906;6.952;2022-08-19T04:29:13;18.40;99.90
14755;DHT22;7469;50.906;6.952;2022-08-19T04:31:43;18.40;99.90
14755;DHT22;7469;50.906;6.952;2022-08-19T04:34:13;18.40;99.90
14755;DHT22;7469;50.906;6.952;2022-08-19T04:36:43;18.40;99.90
14755;DHT22;7469;50.906;6.952;2022-08-19T04:39:13;18.40;99.90
14755;DHT22;7469;50.906;6.952;2022-08-19T04:41:44;18.40;99.90
14755;DHT22;7469;50.906;6.952;2022-08-19T04:44:30;18.50;99.90
14755;DHT22;7469;50.906;6.952;2022-08-19T04:47:01;18.50;99.90
14755;DHT22;7469;50.906;6.952;2022-08-19T04:49:37;18.60;99.90
14755;DHT22;7469;50.906;6.952;2022-08-19T04:52:05;18.60;99.90
14755;DHT22;7469;50.906;6.952;2022-08-19T04:54:35;18.60;99.90
14755;DHT22;7469;50.906;6.952;2022-08-19T04:57:08;18.70;99.90
14755;DHT22;7469;50.906;6.952;2022-08-19T04:59:38;18.70;99.90
14755;DHT22;7469;50.906;6.952;2022-08-19T05:02:07;18.70;99.90
14755;DHT22;7469;50.906;6.952;2022-08-19T05:04:36;18.80;99.90
14755;DHT22;7469;50.906;6.952;2022-08-19T05:07:06;18.80;99.90
14755;DHT22;7469;50.906;6.952;2022-08-19T05:09:35;18.80;99.90
14755;DHT22;7469;50.906;6.952;2022-08-19T05:12:24;18.80;99.90
14755;DHT22;7469;50.906;6.952;2022-08-19T05:14:55;18.90;99.90
14755;DHT22;7469;50.906;6.952;2022-08-19T05:17:23;18.90;99.90
14755;DHT22;7469;50.906;6.952;2022-08-19T05:19:55;18.90;99.90
14755;DHT22;7469;50.906;6.952;2022-08-19T05:22:41;19.00;99.90
14755;DHT22;7469;50.906;6.952;2022-08-19T05:25:11;19.00;99.90
14755;DHT22;7469;50.906;6.952;2022-08-19T05:27:42;19.00;99.90
14755;DHT22;7469;50.906;6.952;2022-08-19T05:30:11;19.10;99.90
14755;DHT22;7469;50.906;6.952;2022-08-19T05:32:39;19.10;99.90
14755;DHT22;7469;50.906;6.952;2022-08-19T05:35:09;19.20;99.90
14755;DHT22;7469;50.906;6.952;2022-08-19T05:37:38;19.20;99.90
14755;DHT22;7469;50.906;6.952;2022-08-19T05:40:08;19.20;99.90
14755;DHT22;7469;50.906;6.952;2022-08-19T05:42:36;19.20;99.90
14755;DHT22;7469;50.906;6.952;2022-08-19T05:45:07;19.30;99.90
14755;DHT22;7469;50.906;6.952;2022-08-19T05:47:35;19.30;99.90
14755;DHT22;7469;50.906;6.952;2022-08-19T05:50:08;19.40;99.90
14755;DHT22;7469;50.906;6.952;2022-08-19T05:52:37;19.40;99.90
14755;DHT22;7469;50.906;6.952;2022-08-19T05:55:15;19.50;99.90
14755;DHT22;7469;50.906;6.952;2022-08-19T05:57:46;19.50;99.90
14755;DHT22;7469;50.906;6.952;2022-08-19T06:00:16;19.60;99.90
14755;DHT22;7469;50.906;6.952;2022-08-19T06:02:50;19.60;99.90
14755;DHT22;7469;50.906;6.952;2022-08-19T06:05:20;19.70;99.90
14755;DHT22;7469;50.906;6.952;2022-08-19T06:07:48;19.80;99.90
14755;DHT22;7469;50.906;6.952;2022-08-19T06:10:16;19.80;99.90
14755;DHT22;7469;50.906;6.952;2022-08-19T06:12:44;19.90;99.90
14755;DHT22;7469;50.906;6.952;2022-08-19T06:15:13;19.90;99.90
14755;DHT22;7469;50.906;6.952;2022-08-19T06:17:43;20.00;99.90
14755;DHT22;7469;50.906;6.952;2022-08-19T06:20:14;20.10;99.90
14755;DHT22;7469;50.906;6.952;2022-08-19T06:23:04;20.10;99.90
14755;DHT22;7469;50.906;6.952;2022-08-19T06:25:32;20.20;99.90
14755;DHT22;7469;50.906;6.952;2022-08-19T06:28:00;20.30;99.90
14755;DHT22;7469;50.906;6.952;2022-08-19T06:30:44;20.30;99.90
14755;DHT22;7469;50.906;6.952;2022-08-19T06:33:13;20.40;99.90
14755;DHT22;7469;50.906;6.952;2022-08-19T06:35:44;20.50;99.90
14755;DHT22;7469;50.906;6.952;2022-08-19T06:38:12;20.60;99.90
14755;DHT22;7469;50.906;6.952;2022-08-19T06:40:40;20.70;99.90
14755;DHT22;7469;50.906;6.952;2022-08-19T06:43:13;20.80;99.90
14755;DHT22;7469;50.906;6.952;2022-08-19T06:45:44;21.00;99.90
14755;DHT22;7469;50.906;6.952;2022-08-19T06:48:14;21.30;99.90
14755;DHT22;7469;50.906;6.952;2022-08-19T06:50:43;21.50;99.90
14755;DHT22;7469;50.906;6.952;2022-08-19T06:53:12;21.70;99.90
14755;DHT22;7469;50.906;6.952;2022-08-19T06:55:40;21.90;99.90
14755;DHT22;7469;50.906;6.952;2022-08-19T06:58:08;22.10;99.90
14755;DHT22;7469;50.906;6.952;2022-08-19T07:00:36;22.20;99.90
14755;DHT22;7469;50.906;6.952;2022-08-19T07:03:04;22.30;99.90
14755;DHT22;7469;50.906;6.952;2022-08-19T07:05:39;22.40;99.90
14755;DHT22;7469;50.906;6.952;2022-08-19T07:08:11;22.60;99.90
14755;DHT22;7469;50.906;6.952;2022-08-19T07:10:43;22.80;99.90
14755;DHT22;7469;50.906;6.952;2022-08-19T07:13:11;22.90;99.90
14755;DHT22;7469;50.906;6.952;2022-08-19T07:15:39;23.00;99.90
14755;DHT22;7469;50.906;6.952;2022-08-19T07:18:08;23.00;99.90
14755;DHT22;7469;50.906;6.952;2022-08-19T07:20:39;23.10;99.90
14755;DHT22;7469;50.906;6.952;2022-08-19T07:23:08;23.30;99.90
14755;DHT22;7469;50.906;6.952;2022-08-19T07:25:42;23.40;99.90
14755;DHT22;7469;50.906;6.952;2022-08-19T07:28:18;23.40;99.90
14755;DHT22;7469;50.906;6.952;2022-08-19T07:30:51;23.40;99.90
14755;DHT22;7469;50.906;6.952;2022-08-19T07:33:19;23.50;99.90
14755;DHT22;7469;50.906;6.952;2022-08-19T07:35:49;23.60;99.90
14755;DHT22;7469;50.906;6.952;2022-08-19T07:38:17;23.70;99.90
14755;DHT22;7469;50.906;6.952;2022-08-19T07:40:45;23.70;99.90
14755;DHT22;7469;50.906;6.952;2022-08-19T07:43:14;23.80;99.90
14755;DHT22;7469;50.906;6.952;2022-08-19T07:45:44;23.90;99.90
14755;DHT22;7469;50.906;6.952;2022-08-19T07:48:13;23.90;99.90
14755;DHT22;7469;50.906;6.952;2022-08-19T07:50:42;23.90;99.90
14755;DHT22;7469;50.906;6.952;2022-08-19T07:53:11;23.90;99.90
14755;DHT22;7469;50.906;6.952;2022-08-19T07:55:39;24.00;99.90
14755;DHT22;7469;50.906;6.952;2022-08-19T07:58:11;23.90;99.90
14755;DHT22;7469;50.906;6.952;2022-08-19T08:00:39;23.90;99.90
14755;DHT22;7469;50.906;6.952;2022-08-19T08:03:07;23.80;99.90
14755;DHT22;7469;50.906;6.952;2022-08-19T08:05:36;23.70;99.90
14755;DHT22;7469;50.906;6.952;2022-08-19T08:08:23;23.70;99.90
14755;DHT22;7469;50.906;6.952;2022-08-19T08:11:13;23.70;99.90
14755;DHT22;7469;50.906;6.952;2022-08-19T08:13:43;23.80;99.90
14755;DHT22;7469;50.906;6.952;2022-08-19T08:16:26;23.90;99.90
14755;DHT22;7469;50.906;6.952;2022-08-19T08:18:56;24.00;99.90
14755;DHT22;7469;50.906;6.952;2022-08-19T08:21:24;24.10;99.90
14755;DHT22;7469;50.906;6.952;2022-08-19T08:23:54;24.10;99.90
14755;DHT22;7469;50.906;6.952;2022-08-19T08:26:22;24.20;99.90
14755;DHT22;7469;50.906;6.952;2022-08-19T08:28:51;24.30;99.90
14755;DHT22;7469;50.906;6.952;2022-08-19T08:31:20;24.40;99.90
14755;DHT22;7469;50.906;6.952;2022-08-19T08:33:48;24.60;99.90
14755;DHT22;7469;50.906;6.952;2022-08-19T08:36:17;24.70;99.90
14755;DHT22;7469;50.906;6.952;2022-08-19T08:38:45;24.90;99.90
14755;DHT22;7469;50.906;6.952;2022-08-19T08:41:21;24.80;99.90
14755;DHT22;7469;50.906;6.952;2022-08-19T08:43:52;24.90;99.90
14755;DHT22;7469;50.906;6.952;2022-08-19T08:46:24;25.00;99.90
14755;DHT22;7469;50.906;6.952;2022-08-19T08:49:01;25.20;99.90
14755;DHT22;7469;50.906;6.952;2022-08-19T08:51:34;25.40;99.90
14755;DHT22;7469;50.906;6.952;2022-08-19T08:54:05;25.70;99.90
14755;DHT22;7469;50.906;6.952;2022-08-19T08:56:39;26.00;99.90
14755;DHT22;7469;50.906;6.952;2022-08-19T08:59:12;26.10;99.90
14755;DHT22;7469;50.906;6.952;2022-08-19T09:01:41;26.30;99.90
14755;DHT22;7469;50.906;6.952;2022-08-19T09:04:12;26.70;99.90
14755;DHT22;7469;50.906;6.952;2022-08-19T09:06:47;27.00;99.90
14755;DHT22;7469;50.906;6.952;2022-08-19T09:09:20;27.40;99.90
14755;DHT22;7469;50.906;6.952;2022-08-19T09:12:02;27.80;99.90
14755;DHT22;7469;50.906;6.952;2022-08-19T09:14:43;28.40;99.90
14755;DHT22;7469;50.906;6.952;2022-08-19T09:17:18;28.70;99.90
14755;DHT22;7469;50.906;6.952;2022-08-19T09:19:51;28.80;99.90
14755;DHT22;7469;50.906;6.952;2022-08-19T09:22:19;29.20;99.90
14755;DHT22;7469;50.906;6.952;2022-08-19T09:24:52;29.90;99.30
14755;DHT22;7469;50.906;6.952;2022-08-19T09:27:22;30.50;97.20
14755;DHT22;7469;50.906;6.952;2022-08-19T09:30:12;31.10;94.60
14755;DHT22;7469;50.906;6.952;2022-08-19T09:32:41;31.80;91.90
14755;DHT22;7469;50.906;6.952;2022-08-19T09:35:10;32.50;89.10
14755;DHT22;7469;50.906;6.952;2022-08-19T09:37:39;34.00;82.10
14755;DHT22;7469;50.906;6.952;2022-08-19T09:40:09;36.00;69.90
14755;DHT22;7469;50.906;6.952;2022-08-19T09:42:40;37.80;56.40
14755;DHT22;7469;50.906;6.952;2022-08-19T09:45:18;39.60;46.10
14755;DHT22;7469;50.906;6.952;2022-08-19T09:47:48;41.10;37.40
14755;DHT22;7469;50.906;6.952;2022-08-19T09:50:20;42.30;31.50
14755;DHT22;7469;50.906;6.952;2022-08-19T09:52:48;42.80;28.10
14755;DHT22;7469;50.906;6.952;2022-08-19T09:55:24;43.00;26.70
14755;DHT22;7469;50.906;6.952;2022-08-19T09:58:01;43.50;24.90
14755;DHT22;7469;50.906;6.952;2022-08-19T10:00:29;44.00;23.20
14755;DHT22;7469;50.906;6.952;2022-08-19T10:02:58;44.30;21.70
14755;DHT22;7469;50.906;6.952;2022-08-19T10:05:27;44.70;21.20
14755;DHT22;7469;50.906;6.952;2022-08-19T10:08:16;45.50;20.20
14755;DHT22;7469;50.906;6.952;2022-08-19T10:10:46;46.20;18.50
14755;DHT22;7469;50.906;6.952;2022-08-19T10:13:19;46.50;17.10
14755;DHT22;7469;50.906;6.952;2022-08-19T10:15:52;46.60;16.30
14755;DHT22;7469;50.906;6.952;2022-08-19T10:18:22;46.90;16.30
14755;DHT22;7469;50.906;6.952;2022-08-19T10:20:51;46.60;16.30
14755;DHT22;7469;50.906;6.952;2022-08-19T10:23:21;46.30;16.10
14755;DHT22;7469;50.906;6.952;2022-08-19T10:25:49;46.40;15.80
14755;DHT22;7469;50.906;6.952;2022-08-19T10:28:21;46.30;15.70
14755;DHT22;7469;50.906;6.952;2022-08-19T10:30:49;46.40;15.30
14755;DHT22;7469;50.906;6.952;2022-08-19T10:33:17;46.10;15.50
14755;DHT22;7469;50.906;6.952;2022-08-19T10:36:09;45.10;15.80
14755;DHT22;7469;50.906;6.952;2022-08-19T10:38:37;43.10;17.20
14755;DHT22;7469;50.906;6.952;2022-08-19T10:41:21;41.10;18.90
14755;DHT22;7469;50.906;6.952;2022-08-19T10:43:52;40.20;20.00
14755;DHT22;7469;50.906;6.952;2022-08-19T10:46:23;40.30;20.00
14755;DHT22;7469;50.906;6.952;2022-08-19T10:48:54;40.30;20.10
14755;DHT22;7469;50.906;6.952;2022-08-19T10:51:22;41.00;19.80
14755;DHT22;7469;50.906;6.952;2022-08-19T10:54:14;40.60;19.90
14755;DHT22;7469;50.906;6.952;2022-08-19T10:56:56;39.50;20.50
14755;DHT22;7469;50.906;6.952;2022-08-19T10:59:28;38.00;21.90
14755;DHT22;7469;50.906;6.952;2022-08-19T11:02:03;36.80;23.30
14755;DHT22;7469;50.906;6.952;2022-08-19T11:04:31;35.80;24.70
14755;DHT22;7469;50.906;6.952;2022-08-19T11:07:01;34.70;26.00
14755;DHT22;7469;50.906;6.952;2022-08-19T11:09:30;34.70;26.70
14755;DHT22;7469;50.906;6.952;2022-08-19T11:12:00;36.00;26.20
14755;DHT22;7469;50.906;6.952;2022-08-19T11:14:32;36.40;25.20
14755;DHT22;7469;50.906;6.952;2022-08-19T11:17:01;35.90;25.60
14755;DHT22;7469;50.906;6.952;2022-08-19T11:19:30;35.60;26.10
14755;DHT22;7469;50.906;6.952;2022-08-19T11:21:59;35.30;26.30
14755;DHT22;7469;50.906;6.952;2022-08-19T11:24:30;34.50;27.00
14755;DHT22;7469;50.906;6.952;2022-08-19T11:27:05;33.90;27.80
14755;DHT22;7469;50.906;6.952;2022-08-19T11:29:37;33.80;28.20
14755;DHT22;7469;50.906;6.952;2022-08-19T11:32:07;33.90;28.20
14755;DHT22;7469;50.906;6.952;2022-08-19T11:34:36;34.00;28.00
14755;DHT22;7469;50.906;6.952;2022-08-19T11:37:05;33.70;27.90
14755;DHT22;7469;50.906;6.952;2022-08-19T11:39:36;33.60;28.00
14755;DHT22;7469;50.906;6.952;2022-08-19T11:42:06;33.40;28.20
14755;DHT22;7469;50.906;6.952;2022-08-19T11:44:50;33.10;28.80
14755;DHT22;7469;50.906;6.952;2022-08-19T11:47:18;32.70;29.30
14755;DHT22;7469;50.906;6.952;2022-08-19T11:49:46;32.20;29.70
14755;DHT22;7469;50.906;6.952;2022-08-19T11:52:14;31.70;30.40
14755;DHT22;7469;50.906;6.952;2022-08-19T11:54:42;31.30;31.10
14755;DHT22;7469;50.906;6.952;2022-08-19T11:57:10;31.00;31.70
14755;DHT22;7469;50.906;6.952;2022-08-19T11:59:38;30.80;32.30
14755;DHT22;7469;50.906;6.952;2022-08-19T12:02:08;30.60;32.70
14755;DHT22;7469;50.906;6.952;2022-08-19T12:04:37;30.40;33.00
14755;DHT22;7469;50.906;6.952;2022-08-19T12:07:05;30.30;33.50
14755;DHT22;7469;50.906;6.952;2022-08-19T12:09:33;30.10;34.30
14755;DHT22;7469;50.906;6.952;2022-08-19T12:12:02;30.00;34.70
14755;DHT22;7469;50.906;6.952;2022-08-19T12:14:30;29.90;34.60
14755;DHT22;7469;50.906;6.952;2022-08-19T12:16:58;29.90;34.80
14755;DHT22;7469;50.906;6.952;2022-08-19T12:19:28;29.80;34.50
14755;DHT22;7469;50.906;6.952;2022-08-19T12:21:59;29.90;34.40
14755;DHT22;7469;50.906;6.952;2022-08-19T12:24:30;29.80;34.70
14755;DHT22;7469;50.906;6.952;2022-08-19T12:26:58;29.90;34.90
14755;DHT22;7469;50.906;6.952;2022-08-19T12:29:29;29.90;34.50
14755;DHT22;7469;50.906;6.952;2022-08-19T12:31:58;30.00;34.30
14755;DHT22;7469;50.906;6.952;2022-08-19T12:34:31;30.00;34.40
14755;DHT22;7469;50.906;6.952;2022-08-19T12:37:02;29.90;33.80
14755;DHT22;7469;50.906;6.952;2022-08-19T12:39:34;29.70;33.70
14755;DHT22;7469;50.906;6.952;2022-08-19T12:42:03;29.60;33.50
14755;DHT22;7469;50.906;6.952;2022-08-19T12:44:31;29.40;33.40
14755;DHT22;7469;50.906;6.952;2022-08-19T12:47:00;29.40;33.40
14755;DHT22;7469;50.906;6.952;2022-08-19T12:49:32;29.50;33.60
14755;DHT22;7469;50.906;6.952;2022-08-19T12:52:22;29.60;33.60
14755;DHT22;7469;50.906;6.952;2022-08-19T12:54:51;29.50;34.00
14755;DHT22;7469;50.906;6.952;2022-08-19T12:57:21;29.60;34.10
14755;DHT22;7469;50.906;6.952;2022-08-19T12:59:59;29.80;34.80
14755;DHT22;7469;50.906;6.952;2022-08-19T13:02:33;30.00;34.90
14755;DHT22;7469;50.906;6.952;2022-08-19T13:05:08;30.10;34.60
14755;DHT22;7469;50.906;6.952;2022-08-19T13:07:38;30.10;34.50
14755;DHT22;7469;50.906;6.952;2022-08-19T13:10:08;30.20;34.00
14755;DHT22;7469;50.906;6.952;2022-08-19T13:12:37;30.30;34.00
14755;DHT22;7469;50.906;6.952;2022-08-19T13:15:06;30.40;33.60
14755;DHT22;7469;50.906;6.952;2022-08-19T13:17:37;30.70;33.20
14755;DHT22;7469;50.906;6.952;2022-08-19T13:20:09;30.80;32.70
14755;DHT22;7469;50.906;6.952;2022-08-19T13:22:38;30.90;32.40
14755;DHT22;7469;50.906;6.952;2022-08-19T13:25:07;30.90;31.70
14755;DHT22;7469;50.906;6.952;2022-08-19T13:27:36;30.60;31.20
14755;DHT22;7469;50.906;6.952;2022-08-19T13:30:06;30.70;31.50
14755;DHT22;7469;50.906;6.952;2022-08-19T13:32:52;30.80;31.20
14755;DHT22;7469;50.906;6.952;2022-08-19T13:35:45;30.90;31.00
14755;DHT22;7469;50.906;6.952;2022-08-19T13:38:15;31.10;30.80
14755;DHT22;7469;50.906;6.952;2022-08-19T13:40:44;31.20;30.20
14755;DHT22;7469;50.906;6.952;2022-08-19T13:43:13;31.30;30.00
14755;DHT22;7469;50.906;6.952;2022-08-19T13:45:50;31.30;30.20
14755;DHT22;7469;50.906;6.952;2022-08-19T13:48:24;31.30;29.70
14755;DHT22;7469;50.906;6.952;2022-08-19T13:50:55;31.40;29.70
14755;DHT22;7469;50.906;6.952;2022-08-19T13:53:23;31.40;29.00
14755;DHT22;7469;50.906;6.952;2022-08-19T13:55:51;31.40;28.90
14755;DHT22;7469;50.906;6.952;2022-08-19T13:58:20;31.20;28.80
14755;DHT22;7469;50.906;6.952;2022-08-19T14:00:48;31.20;29.10
14755;DHT22;7469;50.906;6.952;2022-08-19T14:03:16;31.20;29.10
14755;DHT22;7469;50.906;6.952;2022-08-19T14:05:44;31.10;29.00
14755;DHT22;7469;50.906;6.952;2022-08-19T14:08:14;31.20;29.00
14755;DHT22;7469;50.906;6.952;2022-08-19T14:10:43;31.20;29.00
14755;DHT22;7469;50.906;6.952;2022-08-19T14:13:14;31.30;29.00
14755;DHT22;7469;50.906;6.952;2022-08-19T14:15:42;31.30;28.80
14755;DHT22;7469;50.906;6.952;2022-08-19T14:18:10;31.30;28.20
14755;DHT22;7469;50.906;6.952;2022-08-19T14:20:38;31.40;28.40
14755;DHT22;7469;50.906;6.952;2022-08-19T14:23:06;31.50;28.60
14755;DHT22;7469;50.906;6.952;2022-08-19T14:25:36;31.40;28.60
14755;DHT22;7469;50.906;6.952;2022-08-19T14:28:04;31.40;28.50
14755;DHT22;7469;50.906;6.952;2022-08-19T14:30:34;31.30;28.60
14755;DHT22;7469;50.906;6.952;2022-08-19T14:33:05;31.30;28.90
14755;DHT22;7469;50.906;6.952;2022-08-19T14:35:34;31.30;29.00
14755;DHT22;7469;50.906;6.952;2022-08-19T14:38:03;31.40;28.80
14755;DHT22;7469;50.906;6.952;2022-08-19T14:40:31;31.30;28.60
14755;DHT22;7469;50.906;6.952;2022-08-19T14:43:02;31.50;28.70
14755;DHT22;7469;50.906;6.952;2022-08-19T14:45:33;31.60;28.70
14755;DHT22;7469;50.906;6.952;2022-08-19T14:48:03;31.60;28.30
14755;DHT22;7469;50.906;6.952;2022-08-19T14:50:31;31.70;28.50
14755;DHT22;7469;50.906;6.952;2022-08-19T14:53:01;31.50;28.50
14755;DHT22;7469;50.906;6.952;2022-08-19T14:55:41;31.50;28.70
14755;DHT22;7469;50.906;6.952;2022-08-19T14:58:11;31.50;28.90
14755;DHT22;7469;50.906;6.952;2022-08-19T15:00:56;31.50;28.90
14755;DHT22;7469;50.906;6.952;2022-08-19T15:03:24;31.70;28.70
14755;DHT22;7469;50.906;6.952;2022-08-19T15:05:52;31.80;28.00
14755;DHT22;7469;50.906;6.952;2022-08-19T15:08:20;31.90;27.80
14755;DHT22;7469;50.906;6.952;2022-08-19T15:10:49;31.90;28.00
14755;DHT22;7469;50.906;6.952;2022-08-19T15:13:18;31.90;27.50
14755;DHT22;7469;50.906;6.952;2022-08-19T15:15:47;31.70;27.50
14755;DHT22;7469;50.906;6.952;2022-08-19T15:18:15;31.70;27.60
14755;DHT22;7469;50.906;6.952;2022-08-19T15:20:43;31.50;27.70
14755;DHT22;7469;50.906;6.952;2022-08-19T15:23:16;31.50;27.60
14755;DHT22;7469;50.906;6.952;2022-08-19T15:25:44;31.40;27.40
14755;DHT22;7469;50.906;6.952;2022-08-19T15:28:12;31.40;27.40
14755;DHT22;7469;50.906;6.952;2022-08-19T15:30:43;31.20;27.50
14755;DHT22;7469;50.906;6.952;2022-08-19T15:33:11;31.00;27.90
14755;DHT22;7469;50.906;6.952;2022-08-19T15:35:41;30.90;28.00
14755;DHT22;7469;50.906;6.952;2022-08-19T15:38:10;30.80;28.30
14755;DHT22;7469;50.906;6.952;2022-08-19T15:40:40;30.70;28.50
14755;DHT22;7469;50.906;6.952;2022-08-19T15:43:08;30.40;28.80
14755;DHT22;7469;50.906;6.952;2022-08-19T15:45:37;30.10;29.30
14755;DHT22;7469;50.906;6.952;2022-08-19T15:48:07;29.80;29.70
14755;DHT22;7469;50.906;6.952;2022-08-19T15:50:35;29.60;30.00
14755;DHT22;7469;50.906;6.952;2022-08-19T15:53:07;29.50;30.00
14755;DHT22;7469;50.906;6.952;2022-08-19T15:55:40;29.40;30.50
14755;DHT22;7469;50.906;6.952;2022-08-19T15:58:10;29.30;31.10
14755;DHT22;7469;50.906;6.952;2022-08-19T16:00:56;29.20;31.70
14755;DHT22;7469;50.906;6.952;2022-08-19T16:03:44;29.00;32.30
14755;DHT22;7469;50.906;6.952;2022-08-19T16:06:39;28.90;33.00
14755;DHT22;7469;50.906;6.952;2022-08-19T16:09:07;28.80;33.60